sensor_id;sensor_type;location;lat;lon;timestamp;P1;durP1;ratioP1;P2;durP2;ratioP2
15876;SDS011;8037;51.666;7.834;2023-05-24T00:00:08;4.83;;;0.80;;
15876;SDS011;8037;51.666;7.834;2023-05-24T00:02:38;10.30;;;2.13;;
15876;SDS011;8037;51.666;7.834;2023-05-24T00:05:06;2.73;;;1.00;;
15876;SDS011;8037;51.666;7.834;2023-05-24T00:07:34;8.03;;;2.20;;
15876;SDS011;8037;51.666;7.834;2023-05-24T00:10:01;5.20;;;1.73;;
15876;SDS011;8037;51.666;7.834;2023-05-24T00:12:27;5.93;;;1.60;;
15876;SDS011;8037;51.666;7.834;2023-05-24T00:14:53;3.60;;;1.10;;
15876;SDS011;8037;51.666;7.834;2023-05-24T00:17:19;7.70;;;1.57;;
15876;SDS011;8037;51.666;7.834;2023-05-24T00:19:45;8.57;;;1.93;;
15876;SDS011;8037;51.666;7.834;2023-05-24T00:22:11;4.33;;;1.60;;
15876;SDS011;8037;51.666;7.834;2023-05-24T00:24:38;8.20;;;1.90;;
15876;SDS011;8037;51.666;7.834;2023-05-24T00:27:04;7.87;;;1.90;;
15876;SDS011;8037;51.666;7.834;2023-05-24T00:29:30;5.73;;;1.90;;
15876;SDS011;8037;51.666;7.834;2023-05-24T00:31:56;4.27;;;1.40;;
15876;SDS011;8037;51.666;7.834;2023-05-24T00:34:22;10.93;;;2.13;;
15876;SDS011;8037;51.666;7.834;2023-05-24T00:36:48;7.10;;;2.53;;
15876;SDS011;8037;51.666;7.834;2023-05-24T00:39:15;6.90;;;1.77;;
15876;SDS011;8037;51.666;7.834;2023-05-24T00:41:41;9.13;;;2.63;;
15876;SDS011;8037;51.666;7.834;2023-05-24T00:44:07;5.07;;;2.00;;
15876;SDS011;8037;51.666;7.834;2023-05-24T00:46:35;4.70;;;2.63;;
15876;SDS011;8037;51.666;7.834;2023-05-24T00:49:01;9.80;;;1.90;;
15876;SDS011;8037;51.666;7.834;2023-05-24T00:51:27;8.03;;;1.23;;
15876;SDS011;8037;51.666;7.834;2023-05-24T00:53:54;12.07;;;2.23;;
15876;SDS011;8037;51.666;7.834;2023-05-24T00:56:20;6.07;;;1.10;;
15876;SDS011;8037;51.666;7.834;2023-05-24T00:58:46;1.50;;;1.37;;
15876;SDS011;8037;51.666;7.834;2023-05-24T01:01:14;6.90;;;1.10;;
15876;SDS011;8037;51.666;7.834;2023-05-24T01:03:40;5.53;;;1.70;;
15876;SDS011;8037;51.666;7.834;2023-05-24T01:06:07;5.43;;;1.60;;
15876;SDS011;8037;51.666;7.834;2023-05-24T01:14:01;3.80;;;1.20;;
15876;SDS011;8037;51.666;7.834;2023-05-24T01:16:35;2.77;;;1.70;;
15876;SDS011;8037;51.666;7.834;2023-05-24T01:19:07;2.30;;;1.43;;
15876;SDS011;8037;51.666;7.834;2023-05-24T01:29:23;16.57;;;2.50;;
15876;SDS011;8037;51.666;7.834;2023-05-24T01:31:51;3.60;;;1.00;;
15876;SDS011;8037;51.666;7.834;2023-05-24T01:34:17;17.50;;;2.40;;
15876;SDS011;8037;51.666;7.834;2023-05-24T01:36:43;1.57;;;1.20;;
15876;SDS011;8037;51.666;7.834;2023-05-24T01:39:09;2.33;;;1.13;;
15876;SDS011;8037;51.666;7.834;2023-05-24T01:41:39;10.90;;;2.90;;
15876;SDS011;8037;51.666;7.834;2023-05-24T01:46:36;5.33;;;1.90;;
15876;SDS011;8037;51.666;7.834;2023-05-24T01:51:40;1.23;;;1.13;;
15876;SDS011;8037;51.666;7.834;2023-05-24T01:54:08;4.70;;;1.10;;
15876;SDS011;8037;51.666;7.834;2023-05-24T01:56:35;4.30;;;0.90;;
15876;SDS011;8037;51.666;7.834;2023-05-24T01:59:01;2.60;;;1.67;;
15876;SDS011;8037;51.666;7.834;2023-05-24T02:01:27;4.90;;;1.90;;
15876;SDS011;8037;51.666;7.834;2023-05-24T02:03:53;6.83;;;1.70;;
15876;SDS011;8037;51.666;7.834;2023-05-24T02:06:19;4.37;;;1.10;;
15876;SDS011;8037;51.666;7.834;2023-05-24T02:08:45;10.23;;;1.53;;
15876;SDS011;8037;51.666;7.834;2023-05-24T02:11:11;9.10;;;2.33;;
15876;SDS011;8037;51.666;7.834;2023-05-24T02:13:37;3.07;;;1.43;;
15876;SDS011;8037;51.666;7.834;2023-05-24T02:16:03;5.37;;;1.87;;
15876;SDS011;8037;51.666;7.834;2023-05-24T02:18:29;5.37;;;1.60;;
15876;SDS011;8037;51.666;7.834;2023-05-24T02:20:58;10.40;;;1.40;;
15876;SDS011;8037;51.666;7.834;2023-05-24T02:23:25;0.90;;;0.87;;
15876;SDS011;8037;51.666;7.834;2023-05-24T02:25:51;3.60;;;1.53;;
15876;SDS011;8037;51.666;7.834;2023-05-24T02:28:17;1.70;;;0.90;;
15876;SDS011;8037;51.666;7.834;2023-05-24T02:30:42;2.53;;;1.13;;
15876;SDS011;8037;51.666;7.834;2023-05-24T02:33:09;11.87;;;2.00;;
15876;SDS011;8037;51.666;7.834;2023-05-24T02:35:36;4.13;;;1.37;;
15876;SDS011;8037;51.666;7.834;2023-05-24T02:38:01;2.70;;;1.10;;
15876;SDS011;8037;51.666;7.834;2023-05-24T02:40:30;2.97;;;1.97;;
15876;SDS011;8037;51.666;7.834;2023-05-24T02:42:56;2.37;;;1.40;;
15876;SDS011;8037;51.666;7.834;2023-05-24T02:45:22;2.23;;;1.33;;
15876;SDS011;8037;51.666;7.834;2023-05-24T02:47:48;4.20;;;1.53;;
15876;SDS011;8037;51.666;7.834;2023-05-24T02:50:14;3.63;;;1.47;;
15876;SDS011;8037;51.666;7.834;2023-05-24T02:52:39;4.00;;;2.57;;
15876;SDS011;8037;51.666;7.834;2023-05-24T02:55:06;15.33;;;1.47;;
15876;SDS011;8037;51.666;7.834;2023-05-24T02:57:32;1.83;;;1.40;;
15876;SDS011;8037;51.666;7.834;2023-05-24T02:59:58;1.23;;;0.90;;
15876;SDS011;8037;51.666;7.834;2023-05-24T03:02:24;11.07;;;2.13;;
15876;SDS011;8037;51.666;7.834;2023-05-24T03:04:53;13.07;;;1.67;;
15876;SDS011;8037;51.666;7.834;2023-05-24T03:07:18;1.27;;;1.10;;
15876;SDS011;8037;51.666;7.834;2023-05-24T03:09:45;6.87;;;1.47;;
15876;SDS011;8037;51.666;7.834;2023-05-24T03:12:11;2.93;;;1.57;;
15876;SDS011;8037;51.666;7.834;2023-05-24T03:14:38;4.83;;;1.73;;
15876;SDS011;8037;51.666;7.834;2023-05-24T03:17:04;12.27;;;1.47;;
15876;SDS011;8037;51.666;7.834;2023-05-24T03:19:30;10.93;;;1.33;;
15876;SDS011;8037;51.666;7.834;2023-05-24T03:21:55;1.43;;;1.27;;
15876;SDS011;8037;51.666;7.834;2023-05-24T03:24:21;4.67;;;1.33;;
15876;SDS011;8037;51.666;7.834;2023-05-24T03:26:47;7.03;;;1.70;;
15876;SDS011;8037;51.666;7.834;2023-05-24T03:29:13;1.10;;;1.00;;
15876;SDS011;8037;51.666;7.834;2023-05-24T03:31:39;3.37;;;1.27;;
15876;SDS011;8037;51.666;7.834;2023-05-24T03:34:05;13.63;;;1.47;;
15876;SDS011;8037;51.666;7.834;2023-05-24T03:36:31;4.10;;;1.50;;
15876;SDS011;8037;51.666;7.834;2023-05-24T03:38:57;6.20;;;2.53;;
15876;SDS011;8037;51.666;7.834;2023-05-24T03:41:23;0.70;;;0.70;;
15876;SDS011;8037;51.666;7.834;2023-05-24T03:43:53;4.10;;;1.63;;
15876;SDS011;8037;51.666;7.834;2023-05-24T03:46:18;7.90;;;1.50;;
15876;SDS011;8037;51.666;7.834;2023-05-24T03:48:44;2.83;;;1.63;;
15876;SDS011;8037;51.666;7.834;2023-05-24T03:51:10;8.93;;;2.03;;
15876;SDS011;8037;51.666;7.834;2023-05-24T03:53:36;8.50;;;2.33;;
15876;SDS011;8037;51.666;7.834;2023-05-24T03:56:02;4.80;;;1.30;;
15876;SDS011;8037;51.666;7.834;2023-05-24T03:58:28;5.03;;;1.30;;
15876;SDS011;8037;51.666;7.834;2023-05-24T04:00:54;9.93;;;2.17;;
15876;SDS011;8037;51.666;7.834;2023-05-24T04:03:20;9.27;;;1.47;;
15876;SDS011;8037;51.666;7.834;2023-05-24T04:05:46;4.67;;;1.23;;
15876;SDS011;8037;51.666;7.834;2023-05-24T04:08:12;4.60;;;2.20;;
15876;SDS011;8037;51.666;7.834;2023-05-24T04:10:39;7.13;;;2.03;;
15876;SDS011;8037;51.666;7.834;2023-05-24T04:13:05;3.60;;;1.33;;
15876;SDS011;8037;51.666;7.834;2023-05-24T04:15:31;18.33;;;1.77;;
15876;SDS011;8037;51.666;7.834;2023-05-24T04:17:57;3.13;;;1.77;;
15876;SDS011;8037;51.666;7.834;2023-05-24T04:20:24;3.43;;;1.20;;
15876;SDS011;8037;51.666;7.834;2023-05-24T04:22:51;5.40;;;2.10;;
15876;SDS011;8037;51.666;7.834;2023-05-24T04:25:18;5.83;;;1.60;;
15876;SDS011;8037;51.666;7.834;2023-05-24T04:27:44;7.03;;;1.90;;
15876;SDS011;8037;51.666;7.834;2023-05-24T04:30:13;6.43;;;1.40;;
15876;SDS011;8037;51.666;7.834;2023-05-24T04:32:40;5.70;;;1.70;;
15876;SDS011;8037;51.666;7.834;2023-05-24T04:35:08;2.67;;;1.53;;
15876;SDS011;8037;51.666;7.834;2023-05-24T04:37:34;11.93;;;1.40;;
15876;SDS011;8037;51.666;7.834;2023-05-24T04:40:00;1.23;;;1.13;;
15876;SDS011;8037;51.666;7.834;2023-05-24T04:42:27;1.40;;;1.20;;
15876;SDS011;8037;51.666;7.834;2023-05-24T04:44:56;2.30;;;1.70;;
15876;SDS011;8037;51.666;7.834;2023-05-24T04:47:23;7.83;;;1.77;;
15876;SDS011;8037;51.666;7.834;2023-05-24T04:49:49;3.60;;;1.70;;
15876;SDS011;8037;51.666;7.834;2023-05-24T04:52:15;5.40;;;1.70;;
15876;SDS011;8037;51.666;7.834;2023-05-24T04:54:41;13.23;;;1.70;;
15876;SDS011;8037;51.666;7.834;2023-05-24T04:57:07;3.93;;;1.40;;
15876;SDS011;8037;51.666;7.834;2023-05-24T04:59:33;6.23;;;1.90;;
15876;SDS011;8037;51.666;7.834;2023-05-24T05:01:59;6.53;;;1.40;;
15876;SDS011;8037;51.666;7.834;2023-05-24T05:04:25;2.10;;;1.67;;
15876;SDS011;8037;51.666;7.834;2023-05-24T05:06:51;5.13;;;2.03;;
15876;SDS011;8037;51.666;7.834;2023-05-24T05:09:17;6.20;;;2.90;;
15876;SDS011;8037;51.666;7.834;2023-05-24T05:11:45;4.20;;;2.07;;
15876;SDS011;8037;51.666;7.834;2023-05-24T05:14:12;12.03;;;1.90;;
15876;SDS011;8037;51.666;7.834;2023-05-24T05:16:38;6.43;;;1.90;;
15876;SDS011;8037;51.666;7.834;2023-05-24T05:19:05;8.87;;;1.40;;
15876;SDS011;8037;51.666;7.834;2023-05-24T05:21:31;6.40;;;2.00;;
15876;SDS011;8037;51.666;7.834;2023-05-24T05:23:57;5.03;;;2.07;;
15876;SDS011;8037;51.666;7.834;2023-05-24T05:26:24;5.83;;;1.60;;
15876;SDS011;8037;51.666;7.834;2023-05-24T05:28:51;9.63;;;2.73;;
15876;SDS011;8037;51.666;7.834;2023-05-24T05:31:18;10.30;;;2.10;;
15876;SDS011;8037;51.666;7.834;2023-05-24T05:33:44;10.03;;;2.30;;
15876;SDS011;8037;51.666;7.834;2023-05-24T05:36:10;8.00;;;2.17;;
15876;SDS011;8037;51.666;7.834;2023-05-24T05:38:36;8.30;;;2.50;;
15876;SDS011;8037;51.666;7.834;2023-05-24T05:41:02;15.57;;;2.23;;
15876;SDS011;8037;51.666;7.834;2023-05-24T05:43:28;13.63;;;3.00;;
15876;SDS011;8037;51.666;7.834;2023-05-24T05:45:54;5.13;;;2.10;;
15876;SDS011;8037;51.666;7.834;2023-05-24T05:48:20;4.23;;;2.03;;
15876;SDS011;8037;51.666;7.834;2023-05-24T05:50:46;11.43;;;1.97;;
15876;SDS011;8037;51.666;7.834;2023-05-24T05:53:12;13.70;;;3.27;;
15876;SDS011;8037;51.666;7.834;2023-05-24T05:55:38;11.33;;;2.60;;
15876;SDS011;8037;51.666;7.834;2023-05-24T05:58:04;6.50;;;1.73;;
15876;SDS011;8037;51.666;7.834;2023-05-24T06:00:29;5.80;;;2.60;;
15876;SDS011;8037;51.666;7.834;2023-05-24T06:02:55;7.23;;;2.13;;
15876;SDS011;8037;51.666;7.834;2023-05-24T06:05:21;23.07;;;3.07;;
15876;SDS011;8037;51.666;7.834;2023-05-24T06:07:47;6.63;;;2.23;;
15876;SDS011;8037;51.666;7.834;2023-05-24T06:10:13;6.03;;;2.27;;
15876;SDS011;8037;51.666;7.834;2023-05-24T06:12:40;20.47;;;2.90;;
15876;SDS011;8037;51.666;7.834;2023-05-24T06:15:06;9.93;;;2.90;;
15876;SDS011;8037;51.666;7.834;2023-05-24T06:17:32;13.27;;;3.30;;
15876;SDS011;8037;51.666;7.834;2023-05-24T06:19:58;10.93;;;3.10;;
15876;SDS011;8037;51.666;7.834;2023-05-24T06:22:25;5.60;;;2.83;;
15876;SDS011;8037;51.666;7.834;2023-05-24T06:24:54;9.73;;;3.93;;
15876;SDS011;8037;51.666;7.834;2023-05-24T06:27:20;8.73;;;3.53;;
15876;SDS011;8037;51.666;7.834;2023-05-24T06:29:46;15.10;;;2.93;;
15876;SDS011;8037;51.666;7.834;2023-05-24T06:32:13;8.10;;;3.60;;
15876;SDS011;8037;51.666;7.834;2023-05-24T06:34:38;13.67;;;3.63;;
15876;SDS011;8037;51.666;7.834;2023-05-24T06:37:06;9.77;;;3.00;;
15876;SDS011;8037;51.666;7.834;2023-05-24T06:39:34;4.70;;;2.90;;
15876;SDS011;8037;51.666;7.834;2023-05-24T06:42:00;9.97;;;3.30;;
15876;SDS011;8037;51.666;7.834;2023-05-24T06:44:26;8.30;;;3.47;;
15876;SDS011;8037;51.666;7.834;2023-05-24T06:46:57;14.90;;;4.33;;
15876;SDS011;8037;51.666;7.834;2023-05-24T06:49:23;10.10;;;3.47;;
15876;SDS011;8037;51.666;7.834;2023-05-24T06:51:49;16.93;;;3.80;;
15876;SDS011;8037;51.666;7.834;2023-05-24T06:54:15;11.07;;;2.70;;
15876;SDS011;8037;51.666;7.834;2023-05-24T06:56:41;8.83;;;2.77;;
15876;SDS011;8037;51.666;7.834;2023-05-24T06:59:07;12.50;;;3.60;;
15876;SDS011;8037;51.666;7.834;2023-05-24T07:01:33;19.27;;;3.37;;
15876;SDS011;8037;51.666;7.834;2023-05-24T07:03:59;11.00;;;4.50;;
15876;SDS011;8037;51.666;7.834;2023-05-24T07:06:25;7.50;;;2.90;;
15876;SDS011;8037;51.666;7.834;2023-05-24T07:08:51;14.07;;;4.40;;
15876;SDS011;8037;51.666;7.834;2023-05-24T07:11:17;6.60;;;2.80;;
15876;SDS011;8037;51.666;7.834;2023-05-24T07:13:43;6.50;;;2.33;;
15876;SDS011;8037;51.666;7.834;2023-05-24T07:16:09;8.93;;;2.73;;
15876;SDS011;8037;51.666;7.834;2023-05-24T07:18:35;16.33;;;3.13;;
15876;SDS011;8037;51.666;7.834;2023-05-24T07:21:01;5.03;;;2.43;;
15876;SDS011;8037;51.666;7.834;2023-05-24T07:23:27;7.10;;;2.43;;
15876;SDS011;8037;51.666;7.834;2023-05-24T07:25:53;14.77;;;2.80;;
15876;SDS011;8037;51.666;7.834;2023-05-24T07:28:19;10.73;;;3.40;;
15876;SDS011;8037;51.666;7.834;2023-05-24T07:30:45;13.33;;;2.57;;
15876;SDS011;8037;51.666;7.834;2023-05-24T07:33:11;9.03;;;2.50;;
15876;SDS011;8037;51.666;7.834;2023-05-24T07:35:37;15.37;;;3.30;;
15876;SDS011;8037;51.666;7.834;2023-05-24T07:38:04;11.10;;;2.47;;
15876;SDS011;8037;51.666;7.834;2023-05-24T07:40:30;10.90;;;3.27;;
15876;SDS011;8037;51.666;7.834;2023-05-24T07:42:56;8.80;;;2.27;;
15876;SDS011;8037;51.666;7.834;2023-05-24T07:45:22;11.07;;;3.33;;
15876;SDS011;8037;51.666;7.834;2023-05-24T07:47:48;9.53;;;2.83;;
15876;SDS011;8037;51.666;7.834;2023-05-24T07:50:14;6.60;;;2.60;;
15876;SDS011;8037;51.666;7.834;2023-05-24T07:52:40;7.40;;;2.43;;
15876;SDS011;8037;51.666;7.834;2023-05-24T07:55:07;8.10;;;2.30;;
15876;SDS011;8037;51.666;7.834;2023-05-24T07:57:33;11.73;;;2.53;;
15876;SDS011;8037;51.666;7.834;2023-05-24T07:59:59;9.67;;;2.67;;
15876;SDS011;8037;51.666;7.834;2023-05-24T08:02:31;14.77;;;3.23;;
15876;SDS011;8037;51.666;7.834;2023-05-24T08:04:57;14.70;;;2.73;;
15876;SDS011;8037;51.666;7.834;2023-05-24T08:07:24;18.23;;;4.17;;
15876;SDS011;8037;51.666;7.834;2023-05-24T08:09:50;20.23;;;2.90;;
15876;SDS011;8037;51.666;7.834;2023-05-24T08:12:15;4.73;;;2.90;;
15876;SDS011;8037;51.666;7.834;2023-05-24T08:14:41;12.17;;;2.70;;
15876;SDS011;8037;51.666;7.834;2023-05-24T08:17:07;18.63;;;3.00;;
15876;SDS011;8037;51.666;7.834;2023-05-24T08:19:33;12.30;;;3.67;;
15876;SDS011;8037;51.666;7.834;2023-05-24T08:22:00;8.50;;;2.83;;
15876;SDS011;8037;51.666;7.834;2023-05-24T08:24:29;9.30;;;2.60;;
15876;SDS011;8037;51.666;7.834;2023-05-24T08:26:56;8.87;;;3.33;;
15876;SDS011;8037;51.666;7.834;2023-05-24T08:29:22;9.20;;;3.07;;
15876;SDS011;8037;51.666;7.834;2023-05-24T08:31:48;10.43;;;2.53;;
15876;SDS011;8037;51.666;7.834;2023-05-24T08:34:14;19.50;;;3.07;;
15876;SDS011;8037;51.666;7.834;2023-05-24T08:36:40;9.57;;;2.40;;
15876;SDS011;8037;51.666;7.834;2023-05-24T08:39:07;6.47;;;2.23;;
15876;SDS011;8037;51.666;7.834;2023-05-24T08:41:34;7.67;;;2.87;;
15876;SDS011;8037;51.666;7.834;2023-05-24T08:44:04;12.23;;;3.00;;
15876;SDS011;8037;51.666;7.834;2023-05-24T08:46:32;10.73;;;3.03;;
15876;SDS011;8037;51.666;7.834;2023-05-24T08:48:59;8.03;;;2.87;;
15876;SDS011;8037;51.666;7.834;2023-05-24T08:51:27;7.53;;;2.03;;
15876;SDS011;8037;51.666;7.834;2023-05-24T08:53:54;8.13;;;2.13;;
15876;SDS011;8037;51.666;7.834;2023-05-24T08:56:21;12.43;;;3.10;;
15876;SDS011;8037;51.666;7.834;2023-05-24T08:58:49;4.33;;;2.50;;
15876;SDS011;8037;51.666;7.834;2023-05-24T09:01:15;6.23;;;2.90;;
15876;SDS011;8037;51.666;7.834;2023-05-24T09:03:42;7.90;;;2.43;;
15876;SDS011;8037;51.666;7.834;2023-05-24T09:06:09;7.63;;;2.77;;
15876;SDS011;8037;51.666;7.834;2023-05-24T09:08:36;11.37;;;3.10;;
15876;SDS011;8037;51.666;7.834;2023-05-24T09:11:02;14.53;;;3.10;;
15876;SDS011;8037;51.666;7.834;2023-05-24T09:13:30;12.57;;;3.30;;
15876;SDS011;8037;51.666;7.834;2023-05-24T09:15:57;10.47;;;2.10;;
15876;SDS011;8037;51.666;7.834;2023-05-24T09:18:23;8.60;;;2.50;;
15876;SDS011;8037;51.666;7.834;2023-05-24T09:20:49;9.43;;;2.30;;
15876;SDS011;8037;51.666;7.834;2023-05-24T09:23:15;10.73;;;3.00;;
15876;SDS011;8037;51.666;7.834;2023-05-24T09:25:42;7.20;;;2.63;;
15876;SDS011;8037;51.666;7.834;2023-05-24T09:28:08;6.87;;;2.47;;
15876;SDS011;8037;51.666;7.834;2023-05-24T09:30:38;5.30;;;2.50;;
15876;SDS011;8037;51.666;7.834;2023-05-24T09:33:06;9.50;;;2.43;;
15876;SDS011;8037;51.666;7.834;2023-05-24T09:35:32;6.57;;;2.13;;
15876;SDS011;8037;51.666;7.834;2023-05-24T09:38:00;9.90;;;2.10;;
15876;SDS011;8037;51.666;7.834;2023-05-24T09:40:26;10.03;;;2.20;;
15876;SDS011;8037;51.666;7.834;2023-05-24T09:43:05;10.80;;;2.80;;
15876;SDS011;8037;51.666;7.834;2023-05-24T09:45:41;3.70;;;2.27;;
15876;SDS011;8037;51.666;7.834;2023-05-24T09:48:11;9.43;;;3.00;;
15876;SDS011;8037;51.666;7.834;2023-05-24T09:50:37;10.57;;;2.87;;
15876;SDS011;8037;51.666;7.834;2023-05-24T09:53:03;7.30;;;2.50;;
15876;SDS011;8037;51.666;7.834;2023-05-24T09:55:29;9.80;;;2.80;;
15876;SDS011;8037;51.666;7.834;2023-05-24T09:58:02;3.40;;;2.20;;
15876;SDS011;8037;51.666;7.834;2023-05-24T10:00:28;11.03;;;3.03;;
15876;SDS011;8037;51.666;7.834;2023-05-24T10:03:05;5.57;;;2.27;;
15876;SDS011;8037;51.666;7.834;2023-05-24T10:05:32;4.50;;;2.40;;
15876;SDS011;8037;51.666;7.834;2023-05-24T10:07:58;17.97;;;2.60;;
15876;SDS011;8037;51.666;7.834;2023-05-24T10:10:26;8.90;;;2.50;;
15876;SDS011;8037;51.666;7.834;2023-05-24T10:12:53;5.67;;;2.23;;
15876;SDS011;8037;51.666;7.834;2023-05-24T10:15:20;3.20;;;2.90;;
15876;SDS011;8037;51.666;7.834;2023-05-24T10:17:46;8.77;;;2.13;;
15876;SDS011;8037;51.666;7.834;2023-05-24T10:20:12;7.57;;;2.53;;
15876;SDS011;8037;51.666;7.834;2023-05-24T10:22:39;8.43;;;2.03;;
15876;SDS011;8037;51.666;7.834;2023-05-24T10:25:06;9.40;;;2.40;;
15876;SDS011;8037;51.666;7.834;2023-05-24T10:27:36;8.17;;;2.20;;
15876;SDS011;8037;51.666;7.834;2023-05-24T10:30:16;14.80;;;2.83;;
15876;SDS011;8037;51.666;7.834;2023-05-24T10:32:46;17.40;;;3.10;;
15876;SDS011;8037;51.666;7.834;2023-05-24T10:35:13;4.63;;;2.60;;
15876;SDS011;8037;51.666;7.834;2023-05-24T10:37:41;5.23;;;1.93;;
15876;SDS011;8037;51.666;7.834;2023-05-24T10:40:15;7.03;;;2.63;;
15876;SDS011;8037;51.666;7.834;2023-05-24T10:42:45;13.03;;;2.90;;
15876;SDS011;8037;51.666;7.834;2023-05-24T10:47:49;7.70;;;2.80;;
15876;SDS011;8037;51.666;7.834;2023-05-24T10:50:16;5.87;;;2.40;;
15876;SDS011;8037;51.666;7.834;2023-05-24T10:52:43;8.93;;;2.40;;
15876;SDS011;8037;51.666;7.834;2023-05-24T10:55:09;10.33;;;3.40;;
15876;SDS011;8037;51.666;7.834;2023-05-24T10:57:36;16.13;;;3.20;;
15876;SDS011;8037;51.666;7.834;2023-05-24T11:03:07;8.23;;;1.73;;
15876;SDS011;8037;51.666;7.834;2023-05-24T11:05:55;10.00;;;3.00;;
15876;SDS011;8037;51.666;7.834;2023-05-24T11:08:30;5.33;;;2.40;;
15876;SDS011;8037;51.666;7.834;2023-05-24T11:11:05;6.33;;;1.87;;
15876;SDS011;8037;51.666;7.834;2023-05-24T11:13:38;7.27;;;2.33;;
15876;SDS011;8037;51.666;7.834;2023-05-24T11:16:04;7.33;;;2.73;;
15876;SDS011;8037;51.666;7.834;2023-05-24T11:18:30;8.80;;;2.70;;
15876;SDS011;8037;51.666;7.834;2023-05-24T11:21:00;8.40;;;2.33;;
15876;SDS011;8037;51.666;7.834;2023-05-24T11:23:27;3.33;;;1.83;;
15876;SDS011;8037;51.666;7.834;2023-05-24T11:25:53;4.83;;;1.80;;
15876;SDS011;8037;51.666;7.834;2023-05-24T11:28:21;5.47;;;2.40;;
15876;SDS011;8037;51.666;7.834;2023-05-24T11:30:47;5.57;;;1.97;;
15876;SDS011;8037;51.666;7.834;2023-05-24T11:33:14;7.13;;;2.87;;
15876;SDS011;8037;51.666;7.834;2023-05-24T11:35:41;14.30;;;3.00;;
15876;SDS011;8037;51.666;7.834;2023-05-24T11:38:10;9.93;;;2.90;;
15876;SDS011;8037;51.666;7.834;2023-05-24T11:40:37;6.80;;;2.60;;
15876;SDS011;8037;51.666;7.834;2023-05-24T11:43:08;4.20;;;2.10;;
15876;SDS011;8037;51.666;7.834;2023-05-24T11:45:34;8.20;;;3.10;;
15876;SDS011;8037;51.666;7.834;2023-05-24T11:48:04;14.83;;;2.77;;
15876;SDS011;8037;51.666;7.834;2023-05-24T11:50:30;7.37;;;2.57;;
15876;SDS011;8037;51.666;7.834;2023-05-24T11:53:02;10.63;;;3.53;;
15876;SDS011;8037;51.666;7.834;2023-05-24T11:55:28;8.60;;;2.90;;
15876;SDS011;8037;51.666;7.834;2023-05-24T11:57:58;5.30;;;2.10;;
15876;SDS011;8037;51.666;7.834;2023-05-24T12:00:26;14.13;;;2.47;;
15876;SDS011;8037;51.666;7.834;2023-05-24T12:02:55;9.50;;;2.60;;
15876;SDS011;8037;51.666;7.834;2023-05-24T12:05:22;6.23;;;2.03;;
15876;SDS011;8037;51.666;7.834;2023-05-24T12:07:58;5.03;;;3.00;;
15876;SDS011;8037;51.666;7.834;2023-05-24T12:10:25;10.73;;;2.53;;
15876;SDS011;8037;51.666;7.834;2023-05-24T12:12:51;14.20;;;2.43;;
15876;SDS011;8037;51.666;7.834;2023-05-24T12:15:16;27.17;;;2.70;;
15876;SDS011;8037;51.666;7.834;2023-05-24T12:17:43;10.13;;;3.70;;
15876;SDS011;8037;51.666;7.834;2023-05-24T12:20:09;4.67;;;2.00;;
15876;SDS011;8037;51.666;7.834;2023-05-24T12:22:36;10.30;;;3.00;;
15876;SDS011;8037;51.666;7.834;2023-05-24T12:25:02;11.57;;;3.03;;
15876;SDS011;8037;51.666;7.834;2023-05-24T12:27:29;23.37;;;3.37;;
15876;SDS011;8037;51.666;7.834;2023-05-24T12:30:04;9.70;;;2.67;;
15876;SDS011;8037;51.666;7.834;2023-05-24T12:32:30;5.17;;;2.70;;
15876;SDS011;8037;51.666;7.834;2023-05-24T12:34:57;10.17;;;2.80;;
15876;SDS011;8037;51.666;7.834;2023-05-24T12:37:23;10.43;;;2.50;;
15876;SDS011;8037;51.666;7.834;2023-05-24T12:39:49;8.97;;;3.33;;
15876;SDS011;8037;51.666;7.834;2023-05-24T12:42:15;4.93;;;2.40;;
15876;SDS011;8037;51.666;7.834;2023-05-24T12:44:41;11.03;;;2.90;;
15876;SDS011;8037;51.666;7.834;2023-05-24T12:47:08;5.83;;;2.50;;
15876;SDS011;8037;51.666;7.834;2023-05-24T12:49:35;8.13;;;2.43;;
15876;SDS011;8037;51.666;7.834;2023-05-24T12:52:01;6.70;;;3.57;;
15876;SDS011;8037;51.666;7.834;2023-05-24T12:54:27;12.03;;;2.97;;
15876;SDS011;8037;51.666;7.834;2023-05-24T12:56:54;15.13;;;2.60;;
15876;SDS011;8037;51.666;7.834;2023-05-24T12:59:20;17.40;;;2.73;;
15876;SDS011;8037;51.666;7.834;2023-05-24T13:01:46;12.30;;;2.27;;
15876;SDS011;8037;51.666;7.834;2023-05-24T13:04:16;8.03;;;2.43;;
15876;SDS011;8037;51.666;7.834;2023-05-24T13:06:43;11.90;;;2.83;;
15876;SDS011;8037;51.666;7.834;2023-05-24T13:09:09;12.33;;;2.97;;
15876;SDS011;8037;51.666;7.834;2023-05-24T13:11:35;9.80;;;2.73;;
15876;SDS011;8037;51.666;7.834;2023-05-24T13:14:02;16.07;;;3.70;;
15876;SDS011;8037;51.666;7.834;2023-05-24T13:16:28;13.53;;;3.60;;
15876;SDS011;8037;51.666;7.834;2023-05-24T13:18:53;17.13;;;2.67;;
15876;SDS011;8037;51.666;7.834;2023-05-24T13:21:20;8.37;;;2.67;;
15876;SDS011;8037;51.666;7.834;2023-05-24T13:23:46;7.80;;;2.53;;
15876;SDS011;8037;51.666;7.834;2023-05-24T13:26:12;13.60;;;2.30;;
15876;SDS011;8037;51.666;7.834;2023-05-24T13:28:38;7.43;;;2.47;;
15876;SDS011;8037;51.666;7.834;2023-05-24T13:31:04;9.20;;;2.33;;
15876;SDS011;8037;51.666;7.834;2023-05-24T13:33:30;6.67;;;3.30;;
15876;SDS011;8037;51.666;7.834;2023-05-24T13:35:56;7.30;;;2.80;;
15876;SDS011;8037;51.666;7.834;2023-05-24T13:38:22;5.77;;;2.03;;
15876;SDS011;8037;51.666;7.834;2023-05-24T13:40:48;6.13;;;2.87;;
15876;SDS011;8037;51.666;7.834;2023-05-24T13:43:15;14.67;;;3.27;;
15876;SDS011;8037;51.666;7.834;2023-05-24T13:45:42;17.63;;;2.90;;
15876;SDS011;8037;51.666;7.834;2023-05-24T13:48:08;9.80;;;3.50;;
15876;SDS011;8037;51.666;7.834;2023-05-24T13:50:34;11.63;;;2.60;;
15876;SDS011;8037;51.666;7.834;2023-05-24T13:53:00;5.10;;;2.40;;
15876;SDS011;8037;51.666;7.834;2023-05-24T13:55:27;7.83;;;2.60;;
15876;SDS011;8037;51.666;7.834;2023-05-24T13:57:54;14.13;;;2.23;;
15876;SDS011;8037;51.666;7.834;2023-05-24T14:00:21;6.93;;;2.80;;
15876;SDS011;8037;51.666;7.834;2023-05-24T14:02:47;12.70;;;4.10;;
15876;SDS011;8037;51.666;7.834;2023-05-24T14:05:13;3.53;;;2.13;;
15876;SDS011;8037;51.666;7.834;2023-05-24T14:07:39;6.93;;;2.63;;
15876;SDS011;8037;51.666;7.834;2023-05-24T14:10:05;13.10;;;2.70;;
15876;SDS011;8037;51.666;7.834;2023-05-24T14:12:32;6.77;;;2.70;;
15876;SDS011;8037;51.666;7.834;2023-05-24T14:14:57;7.17;;;2.87;;
15876;SDS011;8037;51.666;7.834;2023-05-24T14:17:24;5.23;;;2.47;;
15876;SDS011;8037;51.666;7.834;2023-05-24T14:19:49;8.83;;;2.67;;
15876;SDS011;8037;51.666;7.834;2023-05-24T14:22:15;12.20;;;3.43;;
15876;SDS011;8037;51.666;7.834;2023-05-24T14:24:41;11.00;;;2.70;;
15876;SDS011;8037;51.666;7.834;2023-05-24T14:27:07;10.37;;;3.17;;
15876;SDS011;8037;51.666;7.834;2023-05-24T14:29:33;16.67;;;3.00;;
15876;SDS011;8037;51.666;7.834;2023-05-24T14:31:59;17.03;;;3.90;;
15876;SDS011;8037;51.666;7.834;2023-05-24T14:34:25;8.33;;;2.97;;
15876;SDS011;8037;51.666;7.834;2023-05-24T14:36:51;18.03;;;3.07;;
15876;SDS011;8037;51.666;7.834;2023-05-24T14:39:17;9.93;;;3.20;;
15876;SDS011;8037;51.666;7.834;2023-05-24T14:41:43;23.23;;;3.70;;
15876;SDS011;8037;51.666;7.834;2023-05-24T14:44:09;10.20;;;3.80;;
15876;SDS011;8037;51.666;7.834;2023-05-24T14:46:35;16.80;;;3.27;;
15876;SDS011;8037;51.666;7.834;2023-05-24T14:49:01;7.70;;;2.77;;
15876;SDS011;8037;51.666;7.834;2023-05-24T14:51:27;13.90;;;2.73;;
15876;SDS011;8037;51.666;7.834;2023-05-24T14:53:53;13.90;;;3.60;;
15876;SDS011;8037;51.666;7.834;2023-05-24T14:56:19;5.37;;;2.13;;
15876;SDS011;8037;51.666;7.834;2023-05-24T14:58:44;8.33;;;2.60;;
15876;SDS011;8037;51.666;7.834;2023-05-24T15:01:10;3.50;;;2.57;;
15876;SDS011;8037;51.666;7.834;2023-05-24T15:03:36;7.67;;;3.43;;
15876;SDS011;8037;51.666;7.834;2023-05-24T15:06:02;8.53;;;2.93;;
15876;SDS011;8037;51.666;7.834;2023-05-24T15:08:28;10.27;;;3.23;;
15876;SDS011;8037;51.666;7.834;2023-05-24T15:10:54;14.30;;;3.80;;
15876;SDS011;8037;51.666;7.834;2023-05-24T15:13:20;12.67;;;3.30;;
15876;SDS011;8037;51.666;7.834;2023-05-24T15:15:47;8.43;;;3.23;;
15876;SDS011;8037;51.666;7.834;2023-05-24T15:18:13;23.10;;;3.57;;